Gilman, Colorado
Current Conditions -  °F | °C
As of 1:35 AM on Friday 19 Dec 2014 (Local Time) from KCCU Reporting Station
Overcast Overcast  
Wind Chill: -3°   Ceiling: 1100
Heat Index: 14°   Visibility: NA
Dew Point:   Wind: 18mph
Humidity: 79%   Direction: 260°W
Pressure: 30.06"   Gusts: NA
Location:  39.5881°N, 106.433°W
Report Text: KCCU 190835Z AUTO 26016KT SCT008 BKN011 OVC021 M10/M13 A3006 RMK AO2 PWINO
Loading
Personal Weather Stations






























Interactive Weather Map New forecast layout! Learn more

10-Day Weather Forecast

Advertisements
Track Severe Weather on mobile